createdAt,value
2017-05-22T00:00:16.204Z,52.52
2017-05-22T00:00:41.389Z,52.36
2017-05-22T00:01:07.954Z,52.66
2017-05-22T00:01:34.944Z,52.64
2017-05-22T00:01:57.188Z,52.81
2017-05-22T00:02:22.205Z,52.61
2017-05-22T00:02:56.320Z,52.59
2017-05-22T00:03:22.835Z,52.68
2017-05-22T00:03:52.382Z,52.68
2017-05-22T00:04:14.603Z,52.84
2017-05-22T00:04:39.452Z,53.02
2017-05-22T00:05:01.617Z,52.88
2017-05-22T00:05:26.692Z,52.83
2017-05-22T00:06:38.851Z,53.45
2017-05-22T00:07:00.702Z,53.37
2017-05-22T00:07:27.270Z,53.18
2017-05-22T00:07:49.463Z,53.21
2017-05-22T00:08:16.010Z,53.17
2017-05-22T00:08:37.873Z,53.10
2017-05-22T00:09:03.209Z,52.99
2017-05-22T00:10:07.391Z,53.51
2017-05-22T00:11:50.864Z,53.30
2017-05-22T00:12:12.788Z,53.29
2017-05-22T00:12:43.566Z,53.37
2017-05-22T00:13:17.648Z,53.21
2017-05-22T00:13:39.365Z,53.12
2017-05-22T00:14:01.065Z,53.15
2017-05-22T00:14:27.609Z,53.39
2017-05-22T00:14:49.363Z,53.56
2017-05-22T00:15:14.389Z,53.63
2017-05-22T00:15:36.101Z,53.69
2017-05-22T00:16:05.390Z,53.63
2017-05-22T00:16:27.317Z,53.43
2017-05-22T00:16:54.292Z,53.41
2017-05-22T00:17:18.939Z,53.64
2017-05-22T00:17:46.805Z,53.71
2017-05-22T00:18:08.610Z,53.87
2017-05-22T00:19:02.328Z,53.98
2017-05-22T00:19:36.478Z,53.69
2017-05-22T00:19:58.235Z,53.63
2017-05-22T00:20:24.742Z,53.59
2017-05-22T00:20:54.150Z,53.61
2017-05-22T00:21:18.669Z,53.69
2017-05-22T00:21:45.145Z,53.90
2017-05-22T00:22:41.468Z,53.64
2017-05-22T00:23:03.214Z,53.83
2017-05-22T00:23:24.940Z,53.85
2017-05-22T00:23:49.601Z,53.79
2017-05-22T00:24:14.478Z,53.64
2017-05-22T00:25:20.551Z,53.41
2017-05-22T00:25:47.134Z,53.57
2017-05-22T00:26:43.116Z,53.61
2017-05-22T00:27:12.225Z,53.63
2017-05-22T00:27:36.875Z,53.54
2017-05-22T00:27:59.042Z,53.73
2017-05-22T00:28:21.101Z,53.74
2017-05-22T00:28:46.157Z,53.61
2017-05-22T00:29:12.975Z,53.56
2017-05-22T00:30:12.661Z,53.71
2017-05-22T00:30:34.392Z,53.74
2017-05-22T00:30:56.698Z,53.68
2017-05-22T00:31:26.103Z,53.61
2017-05-22T00:31:56.140Z,53.78
2017-05-22T00:32:22.662Z,53.86
2017-05-22T00:32:44.442Z,53.77
2017-05-22T00:33:09.031Z,53.80
2017-05-22T00:34:34.295Z,53.83
2017-05-22T00:35:00.956Z,53.85
2017-05-22T00:35:27.427Z,54.10
2017-05-22T00:35:53.922Z,54.03
2017-05-22T00:36:20.463Z,54.13
2017-05-22T00:36:47.306Z,54.05
2017-05-22T00:37:19.386Z,54.25
2017-05-22T00:37:44.153Z,54.34
2017-05-22T00:38:18.663Z,54.47
2017-05-22T00:39:14.568Z,54.35
2017-05-22T00:39:37.187Z,54.44
2017-05-22T00:40:02.027Z,54.42
2017-05-22T00:40:58.418Z,54.67
2017-05-22T00:41:25.254Z,54.77
2017-05-22T00:41:52.582Z,54.70
2017-05-22T00:42:14.366Z,54.47
2017-05-22T00:42:45.763Z,54.34
2017-05-22T00:43:46.091Z,54.71
2017-05-22T00:44:13.219Z,54.55
2017-05-22T00:44:37.741Z,54.78
2017-05-22T00:45:40.105Z,54.74
2017-05-22T00:47:15.167Z,54.83
2017-05-22T00:47:36.931Z,54.67
2017-05-22T00:47:58.986Z,54.82
2017-05-22T00:48:23.826Z,54.65
2017-05-22T00:48:50.424Z,54.82
2017-05-22T00:49:12.299Z,54.73
2017-05-22T00:49:37.123Z,54.49
2017-05-22T00:50:08.490Z,54.63
2017-05-22T00:51:07.481Z,54.54
2017-05-22T00:51:29.328Z,54.56
2017-05-22T00:51:51.167Z,54.54
2017-05-22T00:52:18.581Z,54.68
2017-05-22T00:52:45.161Z,54.78
2017-05-22T00:55:03.366Z,54.83
2017-05-22T00:55:34.621Z,54.84
2017-05-22T00:55:56.447Z,54.88
2017-05-22T00:56:18.150Z,54.89
2017-05-22T00:56:47.346Z,54.85
2017-05-22T00:57:09.370Z,55.26
2017-05-22T00:57:36.264Z,55.26
2017-05-22T00:57:58.306Z,55.26
2017-05-22T00:58:24.937Z,55.10
2017-05-22T00:58:54.070Z,54.89
2017-05-22T00:59:20.692Z,54.96
2017-05-22T00:59:50.392Z,54.90
2017-05-22T01:00:12.633Z,54.94
2017-05-22T01:01:16.398Z,54.82
2017-05-22T01:02:23.715Z,55.04
2017-05-22T01:02:45.483Z,55.05
2017-05-22T01:03:07.266Z,54.90
2017-05-22T01:03:29.197Z,54.98
2017-05-22T01:03:53.957Z,54.94
2017-05-22T01:04:18.802Z,55.20
2017-05-22T01:05:12.123Z,55.35
2017-05-22T01:05:34.018Z,55.45
2017-05-22T01:06:00.541Z,55.23
2017-05-22T01:06:22.312Z,55.38
2017-05-22T01:06:44.127Z,55.16
2017-05-22T01:07:10.717Z,55.24
2017-05-22T01:07:32.696Z,55.48
2017-05-22T01:07:59.305Z,55.28
2017-05-22T01:08:28.438Z,55.04
2017-05-22T01:08:50.585Z,55.07
2017-05-22T01:09:12.257Z,55.07
2017-05-22T01:09:39.053Z,55.22
2017-05-22T01:10:04.134Z,55.18
2017-05-22T01:10:33.172Z,55.26
2017-05-22T01:11:32.079Z,55.13
2017-05-22T01:12:01.527Z,55.23
2017-05-22T01:12:28.011Z,55.31
2017-05-22T01:12:50.067Z,55.23
2017-05-22T01:13:16.715Z,55.12
2017-05-22T01:13:39.773Z,55.30
2017-05-22T01:14:04.146Z,55.14
2017-05-22T01:14:26.338Z,55.20
2017-05-22T01:14:54.396Z,55.18
2017-05-22T01:15:57.070Z,55.09
2017-05-22T01:16:18.794Z,55.15
2017-05-22T01:16:45.363Z,55.16
2017-05-22T01:17:13.969Z,55.42
2017-05-22T01:17:47.332Z,55.72
2017-05-22T01:18:19.518Z,55.71
2017-05-22T01:18:41.242Z,55.64
2017-05-22T01:19:02.986Z,55.59
2017-05-22T01:19:24.713Z,55.35
2017-05-22T01:19:46.441Z,55.29
2017-05-22T01:20:13.026Z,55.01
2017-05-22T01:21:23.051Z,54.96
2017-05-22T01:21:54.788Z,54.99
2017-05-22T01:22:24.370Z,54.91
2017-05-22T01:22:52.196Z,54.82
2017-05-22T01:23:28.506Z,55.16
2017-05-22T01:23:55.589Z,55.44
2017-05-22T01:25:06.429Z,55.37
2017-05-22T01:25:32.989Z,55.42
2017-05-22T01:25:55.145Z,55.48
2017-05-22T01:26:17.083Z,55.56
2017-05-22T01:26:41.849Z,55.44
2017-05-22T01:27:03.590Z,55.41
2017-05-22T01:27:52.696Z,55.31
2017-05-22T01:28:19.362Z,55.42
2017-05-22T01:28:41.447Z,55.49
2017-05-22T01:29:05.338Z,55.46
2017-05-22T01:29:27.300Z,55.47
2017-05-22T01:29:53.866Z,55.57
2017-05-22T01:30:15.690Z,55.70
2017-05-22T01:30:42.299Z,55.69
2017-05-22T01:31:04.090Z,55.56
2017-05-22T01:31:28.633Z,55.58
2017-05-22T01:31:50.389Z,55.66
2017-05-22T01:32:16.936Z,55.71
2017-05-22T01:32:41.760Z,55.80
2017-05-22T01:33:06.428Z,55.80
2017-05-22T01:33:33.116Z,55.63
2017-05-22T01:33:55.132Z,55.63
2017-05-22T01:34:17.073Z,55.71
2017-05-22T01:34:43.865Z,55.92
2017-05-22T01:35:06.030Z,55.80
2017-05-22T01:35:28.032Z,55.88
2017-05-22T01:35:54.539Z,56.00
2017-05-22T01:36:57.183Z,55.88
2017-05-22T01:37:18.942Z,55.82
2017-05-22T01:37:45.535Z,55.83
2017-05-22T01:38:12.130Z,55.99
2017-05-22T01:38:38.818Z,55.84
2017-05-22T01:39:04.039Z,55.94
2017-05-22T01:39:26.060Z,55.96
2017-05-22T01:39:47.926Z,55.82
2017-05-22T01:40:12.455Z,55.81
2017-05-22T01:40:36.848Z,55.95
2017-05-22T01:41:03.738Z,55.83
2017-05-22T01:41:29.125Z,55.79
2017-05-22T01:41:59.434Z,55.84
2017-05-22T01:42:26.281Z,56.04
2017-05-22T01:43:22.021Z,56.01
2017-05-22T01:43:48.596Z,55.99
2017-05-22T01:44:15.157Z,56.01
2017-05-22T01:44:40.155Z,55.97
2017-05-22T01:45:39.280Z,56.31
2017-05-22T01:46:10.810Z,56.14
2017-05-22T01:46:32.664Z,56.04
2017-05-22T01:46:54.417Z,55.99
2017-05-22T01:47:20.951Z,55.97
2017-05-22T01:47:52.429Z,55.99
2017-05-22T01:48:20.070Z,56.08
2017-05-22T01:48:46.920Z,56.12
2017-05-22T01:49:16.417Z,56.15
2017-05-22T01:49:43.075Z,56.20
2017-05-22T01:50:05.389Z,56.27
2017-05-22T01:50:29.849Z,56.16
2017-05-22T01:50:51.648Z,56.15
2017-05-22T01:51:13.611Z,56.26
2017-05-22T01:51:41.490Z,56.10
2017-05-22T01:52:09.229Z,56.25
2017-05-22T01:52:31.273Z,56.43
2017-05-22T01:52:58.993Z,56.19
2017-05-22T01:53:20.837Z,56.10
2017-05-22T01:53:47.554Z,56.15
2017-05-22T01:54:13.165Z,56.01
2017-05-22T01:54:40.982Z,56.21
2017-05-22T01:55:06.644Z,56.13
2017-05-22T01:56:05.481Z,56.58
2017-05-22T01:56:30.318Z,56.56
2017-05-22T01:56:55.286Z,56.43
2017-05-22T01:57:17.933Z,56.35
2017-05-22T01:57:40.586Z,56.53
2017-05-22T01:58:07.503Z,56.57
2017-05-22T01:58:42.283Z,56.45
2017-05-22T01:59:05.317Z,56.41
2017-05-22T01:59:33.554Z,56.43
2017-05-22T02:01:04.363Z,56.36
2017-05-22T02:01:26.183Z,56.41
2017-05-22T02:01:52.741Z,56.57
2017-05-22T02:02:46.313Z,56.31
2017-05-22T02:03:13.742Z,56.21
2017-05-22T02:03:35.723Z,56.41
2017-05-22T02:05:19.070Z,56.58
2017-05-22T02:05:42.258Z,56.39
2017-05-22T02:06:08.377Z,56.29
2017-05-22T02:06:33.090Z,56.06
2017-05-22T02:07:31.926Z,56.49
2017-05-22T02:08:03.280Z,56.65
2017-05-22T02:08:25.057Z,56.66
2017-05-22T02:08:51.668Z,56.49
2017-05-22T02:09:16.407Z,56.33
2017-05-22T02:09:42.980Z,56.37
2017-05-22T02:10:13.084Z,56.89
2017-05-22T02:10:39.601Z,57.04
2017-05-22T02:11:07.809Z,56.83
2017-05-22T02:11:34.311Z,56.87
2017-05-22T02:11:58.991Z,57.02
2017-05-22T02:12:23.499Z,56.83
2017-05-22T02:12:45.441Z,56.62
2017-05-22T02:13:11.981Z,56.65
2017-05-22T02:13:33.938Z,56.60
2017-05-22T02:14:06.298Z,56.56
2017-05-22T02:14:28.186Z,56.56
2017-05-22T02:14:54.891Z,56.55
2017-05-22T02:15:16.879Z,56.51
2017-05-22T02:15:41.708Z,56.64
2017-05-22T02:16:03.603Z,56.78
2017-05-22T02:16:33.153Z,56.78
2017-05-22T02:17:04.698Z,56.40
2017-05-22T02:18:13.290Z,56.41
2017-05-22T02:18:42.715Z,56.43
2017-05-22T02:19:07.299Z,56.41
2017-05-22T02:20:39.354Z,56.44
2017-05-22T02:21:11.729Z,56.63
2017-05-22T02:21:33.832Z,56.56
2017-05-22T02:22:05.083Z,56.61
2017-05-22T02:22:26.948Z,56.54
2017-05-22T02:23:18.296Z,56.48
2017-05-22T02:23:43.035Z,56.54
2017-05-22T02:24:10.084Z,56.50
2017-05-22T02:24:34.523Z,56.32
2017-05-22T02:25:30.801Z,56.37
2017-05-22T02:26:04.814Z,56.48
2017-05-22T02:26:36.114Z,56.53
2017-05-22T02:27:02.829Z,56.83
2017-05-22T02:27:24.681Z,56.90
2017-05-22T02:27:49.184Z,57.03
2017-05-22T02:28:10.969Z,56.94
2017-05-22T02:28:43.471Z,57.09
2017-05-22T02:29:08.986Z,57.04
2017-05-22T02:30:40.917Z,57.11
2017-05-22T02:31:05.427Z,56.90
2017-05-22T02:31:30.602Z,57.09
2017-05-22T02:31:57.170Z,56.91
2017-05-22T02:32:23.652Z,56.93
2017-05-22T02:32:50.164Z,56.93
2017-05-22T02:33:12.006Z,56.97
2017-05-22T02:33:40.389Z,57.13
2017-05-22T02:34:06.993Z,57.20
2017-05-22T02:34:36.284Z,57.07
2017-05-22T02:34:58.222Z,57.17
2017-05-22T02:35:20.497Z,57.20
2017-05-22T02:35:42.383Z,57.09
2017-05-22T02:36:13.636Z,57.04
2017-05-22T02:36:35.959Z,57.06
2017-05-22T02:37:02.745Z,56.96
2017-05-22T02:37:34.708Z,57.06
2017-05-22T02:38:04.710Z,57.09
2017-05-22T02:38:31.261Z,56.91
2017-05-22T02:38:56.340Z,56.79
2017-05-22T02:39:25.693Z,56.63
2017-05-22T02:39:56.938Z,56.50
2017-05-22T02:40:23.380Z,56.70
2017-05-22T02:40:45.536Z,57.01
2017-05-22T02:41:14.830Z,56.95
2017-05-22T02:41:36.734Z,56.97
2017-05-22T02:42:03.575Z,57.15
2017-05-22T02:42:30.954Z,57.07
2017-05-22T02:42:55.528Z,56.84
2017-05-22T02:43:20.343Z,57.21
2017-05-22T02:43:42.068Z,57.21
2017-05-22T02:44:11.096Z,56.96
2017-05-22T02:44:37.709Z,57.03
2017-05-22T02:44:59.796Z,56.93
2017-05-22T02:45:26.172Z,56.83
2017-05-22T02:45:52.732Z,56.93
2017-05-22T02:46:20.343Z,57.16
2017-05-22T02:46:47.305Z,57.09
2017-05-22T02:47:46.143Z,57.36
2017-05-22T02:48:47.923Z,57.01
2017-05-22T02:49:17.310Z,57.24
2017-05-22T02:49:40.122Z,57.49
2017-05-22T02:50:11.364Z,57.79
2017-05-22T02:50:37.922Z,57.82
2017-05-22T02:51:03.527Z,57.65
2017-05-22T02:51:30.032Z,57.49
2017-05-22T02:51:57.459Z,57.43
2017-05-22T02:52:28.732Z,57.27
2017-05-22T02:53:32.671Z,57.43
2017-05-22T02:53:54.541Z,57.45
2017-05-22T02:54:22.330Z,57.20
2017-05-22T02:54:44.205Z,56.99
2017-05-22T02:55:42.142Z,56.84
2017-05-22T02:56:16.393Z,57.02
2017-05-22T02:57:21.941Z,57.16
2017-05-22T02:57:50.088Z,57.25
2017-05-22T02:58:16.873Z,57.40
2017-05-22T02:59:46.656Z,58.05
2017-05-22T03:00:12.555Z,57.96
2017-05-22T03:00:40.589Z,57.82
2017-05-22T03:01:09.570Z,57.72
2017-05-22T03:01:33.985Z,57.90
2017-05-22T03:01:58.942Z,57.73
2017-05-22T03:02:28.580Z,57.72
2017-05-22T03:03:39.588Z,57.42
2017-05-22T03:04:10.888Z,57.57
2017-05-22T03:05:50.345Z,57.61
2017-05-22T03:06:18.865Z,57.80
2017-05-22T03:06:52.834Z,57.59
2017-05-22T03:07:28.081Z,57.78
2017-05-22T03:07:50.071Z,58.17
2017-05-22T03:08:20.006Z,58.19
2017-05-22T03:08:41.984Z,58.06
2017-05-22T03:09:37.932Z,57.90
2017-05-22T03:10:07.414Z,57.97
2017-05-22T03:10:29.062Z,57.92
2017-05-22T03:10:50.878Z,57.81
2017-05-22T03:11:18.455Z,57.95
2017-05-22T03:11:40.348Z,58.01
2017-05-22T03:12:07.033Z,58.16
2017-05-22T03:12:33.872Z,58.23
2017-05-22T03:12:58.895Z,58.25
2017-05-22T03:14:41.501Z,58.38
2017-05-22T03:15:10.920Z,58.53
2017-05-22T03:16:07.436Z,58.62
2017-05-22T03:17:49.022Z,58.62
2017-05-22T03:18:15.562Z,58.54
2017-05-22T03:18:42.095Z,58.55
2017-05-22T03:19:08.636Z,58.63
2017-05-22T03:20:17.899Z,58.45
2017-05-22T03:20:40.873Z,58.29
2017-05-22T03:21:03.624Z,58.20
2017-05-22T03:22:06.987Z,58.22
2017-05-22T03:22:55.513Z,58.17
2017-05-22T03:23:24.954Z,58.13
2017-05-22T03:23:46.883Z,58.10
2017-05-22T03:25:40.855Z,58.74
2017-05-22T03:26:05.782Z,58.45
2017-05-22T03:26:34.223Z,58.29
2017-05-22T03:26:58.622Z,58.58
2017-05-22T03:27:27.723Z,58.60
2017-05-22T03:27:57.393Z,58.84
2017-05-22T03:29:07.625Z,58.60
2017-05-22T03:29:34.250Z,58.47
2017-05-22T03:30:00.742Z,58.38
2017-05-22T03:30:27.575Z,58.38
2017-05-22T03:30:59.573Z,58.39
2017-05-22T03:31:26.534Z,58.23
2017-05-22T03:31:57.795Z,58.36
2017-05-22T03:32:27.225Z,58.40
2017-05-22T03:32:58.474Z,58.14
2017-05-22T03:33:28.052Z,57.92
2017-05-22T03:33:54.739Z,57.93
2017-05-22T03:34:19.225Z,57.95
2017-05-22T03:34:50.486Z,58.09
2017-05-22T03:35:20.183Z,58.04
2017-05-22T03:35:49.567Z,57.97
2017-05-22T03:36:16.055Z,58.00
2017-05-22T03:37:46.314Z,58.13
2017-05-22T03:38:49.349Z,58.79
2017-05-22T03:39:21.562Z,58.65
2017-05-22T03:40:21.310Z,58.13
2017-05-22T03:40:53.154Z,58.27
2017-05-22T03:41:19.449Z,58.18
2017-05-22T03:41:50.742Z,58.17
2017-05-22T03:42:18.030Z,58.50
2017-05-22T03:42:42.735Z,58.56
2017-05-22T03:43:12.520Z,58.49
2017-05-22T03:44:16.157Z,58.45
2017-05-22T03:45:22.013Z,58.67
2017-05-22T03:45:51.653Z,58.78
2017-05-22T03:47:50.006Z,58.53
2017-05-22T03:48:19.357Z,58.40
2017-05-22T03:49:21.796Z,58.43
2017-05-22T03:49:58.541Z,58.62
2017-05-22T03:50:50.313Z,58.46
2017-05-22T03:51:12.031Z,58.63
2017-05-22T03:51:33.773Z,58.72
2017-05-22T03:52:00.277Z,58.73
2017-05-22T03:52:24.607Z,58.84
2017-05-22T03:52:46.328Z,58.78
2017-05-22T03:53:24.938Z,58.56
2017-05-22T03:53:59.346Z,58.30
2017-05-22T03:54:33.699Z,58.49
2017-05-22T03:55:02.789Z,58.71
2017-05-22T03:55:31.907Z,58.54
2017-05-22T03:55:54.632Z,58.60
2017-05-22T03:56:21.122Z,58.85
2017-05-22T03:57:14.111Z,58.75
2017-05-22T03:57:36.890Z,58.51
2017-05-22T03:58:03.197Z,58.51
2017-05-22T03:58:29.985Z,58.59
2017-05-22T03:59:03.897Z,58.83
2017-05-22T03:59:35.146Z,58.84
2017-05-22T04:00:01.871Z,58.94
2017-05-22T04:00:36.192Z,58.79
2017-05-22T04:01:04.449Z,58.80
2017-05-22T04:02:19.210Z,58.77
2017-05-22T04:03:19.615Z,58.77
2017-05-22T04:03:46.333Z,58.82
2017-05-22T04:04:08.083Z,58.79
2017-05-22T04:04:34.676Z,58.66
2017-05-22T04:04:57.578Z,58.61
2017-05-22T04:05:26.962Z,58.48
2017-05-22T04:06:18.078Z,58.52
2017-05-22T04:06:39.800Z,58.47
2017-05-22T04:07:08.873Z,58.56
2017-05-22T04:07:35.364Z,58.93
2017-05-22T04:07:57.101Z,59.02
2017-05-22T04:08:18.923Z,59.33
2017-05-22T04:08:48.310Z,59.28
2017-05-22T04:09:19.126Z,59.04
2017-05-22T04:09:48.527Z,58.75
2017-05-22T04:10:20.568Z,58.69
2017-05-22T04:11:21.504Z,58.79
2017-05-22T04:11:47.276Z,58.59
2017-05-22T04:13:25.947Z,58.62
2017-05-22T04:13:52.951Z,58.87
2017-05-22T04:14:25.497Z,58.86
2017-05-22T04:14:57.000Z,58.91
2017-05-22T04:15:19.244Z,59.01
2017-05-22T04:15:57.323Z,58.96
2017-05-22T04:16:24.473Z,58.87
2017-05-22T04:16:56.755Z,58.78
2017-05-22T04:17:27.837Z,58.97
2017-05-22T04:19:00.179Z,59.04
2017-05-22T04:19:29.975Z,58.93
2017-05-22T04:19:55.523Z,58.84
2017-05-22T04:20:22.175Z,58.76
2017-05-22T04:20:47.150Z,58.75
2017-05-22T04:21:23.856Z,58.80
2017-05-22T04:21:50.739Z,58.97
2017-05-22T04:22:12.730Z,59.06
2017-05-22T04:22:37.323Z,59.11
2017-05-22T04:23:01.759Z,58.92
2017-05-22T04:23:33.129Z,58.92
2017-05-22T04:24:54.648Z,58.86
2017-05-22T04:25:28.659Z,58.51
2017-05-22T04:25:55.542Z,58.50
2017-05-22T04:26:20.590Z,58.60
2017-05-22T04:27:23.222Z,58.69
2017-05-22T04:27:45.167Z,58.61
2017-05-22T04:28:40.002Z,58.75
2017-05-22T04:29:11.850Z,58.78
2017-05-22T04:29:40.679Z,59.08
2017-05-22T04:30:10.443Z,59.34
2017-05-22T04:30:36.167Z,59.38
2017-05-22T04:31:02.512Z,58.96
2017-05-22T04:31:55.523Z,59.36
2017-05-22T04:32:24.847Z,59.32
2017-05-22T04:32:54.625Z,59.25
2017-05-22T04:33:27.144Z,59.56
2017-05-22T04:33:56.757Z,59.47
2017-05-22T04:34:23.796Z,59.50
2017-05-22T04:34:48.128Z,59.64
2017-05-22T04:35:13.073Z,59.50
2017-05-22T04:35:45.450Z,59.74
2017-05-22T04:38:14.399Z,59.28
2017-05-22T04:38:38.816Z,59.57
2017-05-22T04:39:35.987Z,59.21
2017-05-22T04:40:07.399Z,59.40
2017-05-22T04:40:36.942Z,59.35
2017-05-22T04:41:08.310Z,59.66
2017-05-22T04:42:11.828Z,59.35
2017-05-22T04:42:33.901Z,59.35
2017-05-22T04:43:36.807Z,59.56
2017-05-22T04:43:58.549Z,59.48
2017-05-22T04:44:20.331Z,59.61
2017-05-22T04:44:52.204Z,59.64
2017-05-22T04:45:17.088Z,59.60
2017-05-22T04:47:05.062Z,59.47
2017-05-22T04:47:53.321Z,59.36
2017-05-22T04:48:15.342Z,59.16
2017-05-22T04:49:59.529Z,58.94
2017-05-22T04:50:21.482Z,59.06
2017-05-22T04:51:59.720Z,58.92
2017-05-22T04:52:21.738Z,58.73
2017-05-22T04:52:43.898Z,58.71
2017-05-22T04:53:38.321Z,58.55
2017-05-22T04:54:04.912Z,58.64
2017-05-22T04:54:58.353Z,58.64
2017-05-22T04:55:24.986Z,58.66
2017-05-22T04:55:46.901Z,59.04
2017-05-22T04:58:02.311Z,58.83
2017-05-22T04:58:50.730Z,58.61
2017-05-22T04:59:17.417Z,58.76
2017-05-22T04:59:39.342Z,58.80
2017-05-22T05:00:37.530Z,58.90
2017-05-22T05:00:59.275Z,58.67
2017-05-22T05:01:21.336Z,58.51
2017-05-22T05:01:46.399Z,58.82
2017-05-22T05:02:13.160Z,58.76
2017-05-22T05:02:44.774Z,58.72
2017-05-22T05:03:56.064Z,58.64
2017-05-22T05:04:22.699Z,58.50
2017-05-22T05:04:53.136Z,58.49
2017-05-22T05:05:24.495Z,58.69
2017-05-22T05:05:49.822Z,58.75
2017-05-22T05:06:19.453Z,58.81
2017-05-22T05:06:46.092Z,58.80
2017-05-22T05:07:18.004Z,58.73
2017-05-22T05:08:49.826Z,59.07
2017-05-22T05:09:25.865Z,58.92
2017-05-22T05:09:47.915Z,59.03
2017-05-22T05:11:27.170Z,58.96
2017-05-22T05:11:54.032Z,58.98
2017-05-22T05:12:20.825Z,58.97
2017-05-22T05:12:42.809Z,59.02
2017-05-22T05:13:51.201Z,58.80
2017-05-22T05:14:54.774Z,59.05
2017-05-22T05:15:55.060Z,58.87
2017-05-22T05:16:17.022Z,58.78
2017-05-22T05:16:44.758Z,58.73
2017-05-22T05:19:09.125Z,58.89
2017-05-22T05:20:29.124Z,58.70
2017-05-22T05:21:27.631Z,58.50
2017-05-22T05:22:21.894Z,58.65
2017-05-22T05:22:52.040Z,58.77
2017-05-22T05:23:16.878Z,58.82
2017-05-22T05:23:46.022Z,59.02
2017-05-22T05:24:12.665Z,59.03
2017-05-22T05:24:34.641Z,59.05
2017-05-22T05:25:01.264Z,58.91
2017-05-22T05:25:25.623Z,58.85
2017-05-22T05:25:47.520Z,58.80
2017-05-22T05:26:42.752Z,58.55
2017-05-22T05:28:38.750Z,58.61
2017-05-22T05:29:00.658Z,58.71
2017-05-22T05:29:27.246Z,59.16
2017-05-22T05:29:49.083Z,59.16
2017-05-22T05:30:42.204Z,59.03
2017-05-22T05:31:13.574Z,58.87
2017-05-22T05:31:36.400Z,58.76
2017-05-22T05:32:34.323Z,58.86
2017-05-22T05:33:36.786Z,59.02
2017-05-22T05:34:03.349Z,58.66
2017-05-22T05:35:08.690Z,58.58
2017-05-22T05:35:37.762Z,58.61
2017-05-22T05:36:09.216Z,58.83
2017-05-22T05:36:32.145Z,58.96
2017-05-22T05:36:57.165Z,58.89
2017-05-22T05:37:56.111Z,58.38
2017-05-22T05:38:22.673Z,58.40
2017-05-22T05:38:44.631Z,58.34
2017-05-22T05:39:11.564Z,58.23
2017-05-22T05:39:33.489Z,58.47
2017-05-22T05:39:55.655Z,58.52
2017-05-22T05:40:20.556Z,58.48
2017-05-22T05:40:45.651Z,58.47
2017-05-22T05:41:19.680Z,58.63
2017-05-22T05:41:53.906Z,58.61
2017-05-22T05:42:25.237Z,58.48
2017-05-22T05:42:50.232Z,58.68
2017-05-22T05:43:55.784Z,58.73
2017-05-22T05:44:22.385Z,58.69
2017-05-22T05:45:30.363Z,59.17
2017-05-22T05:46:42.184Z,59.04
2017-05-22T05:47:05.073Z,58.84
2017-05-22T05:47:27.076Z,58.71
2017-05-22T05:47:50.047Z,58.59
2017-05-22T05:48:52.950Z,58.63
2017-05-22T05:50:13.372Z,58.83
2017-05-22T05:50:54.710Z,58.99
2017-05-22T05:52:10.363Z,58.64
2017-05-22T05:55:13.317Z,58.46
2017-05-22T05:57:42.166Z,59.01
2017-05-22T05:58:43.444Z,58.61
2017-05-22T05:59:10.083Z,58.39
2017-05-22T05:59:32.140Z,58.21
2017-05-22T06:00:03.496Z,58.20
2017-05-22T06:08:49.317Z,58.15
2017-05-22T06:09:25.169Z,58.34
2017-05-22T06:09:56.117Z,58.28
2017-05-22T06:10:22.753Z,58.31
2017-05-22T06:10:52.610Z,58.40
2017-05-22T06:11:14.548Z,58.36
2017-05-22T06:11:46.966Z,58.47
2017-05-22T06:12:21.410Z,58.56
2017-05-22T06:12:49.250Z,58.31
2017-05-22T06:13:52.921Z,58.33
2017-05-22T06:14:14.765Z,58.17
2017-05-22T06:14:36.604Z,57.89
2017-05-22T06:14:58.385Z,57.92
2017-05-22T06:23:35.024Z,59.39
2017-05-22T06:23:59.797Z,59.33
2017-05-22T06:24:24.375Z,59.29
2017-05-22T06:24:50.857Z,59.23
2017-05-22T06:26:24.663Z,59.74
2017-05-22T06:26:46.405Z,59.29
2017-05-22T06:27:44.582Z,59.89
2017-05-22T06:28:06.755Z,59.67
2017-05-22T06:29:12.215Z,59.38
2017-05-22T06:29:33.934Z,59.35
2017-05-22T06:30:04.992Z,59.44
2017-05-22T06:30:29.426Z,59.75
2017-05-22T06:31:56.826Z,59.24
2017-05-22T06:32:27.955Z,58.96
2017-05-22T06:32:54.317Z,58.67
2017-05-22T06:33:49.862Z,59.33
2017-05-22T06:34:18.927Z,59.20
2017-05-22T06:35:34.330Z,58.37
2017-05-22T06:36:00.798Z,58.05
2017-05-22T06:36:22.543Z,58.90
2017-05-22T06:36:49.010Z,59.27
2017-05-22T06:37:15.500Z,59.19
2017-05-22T06:37:37.264Z,59.11
2017-05-22T06:37:58.981Z,59.07
2017-05-22T06:39:02.124Z,58.45
2017-05-22T06:39:26.577Z,59.20
2017-05-22T06:39:57.000Z,58.96
2017-05-22T06:40:24.795Z,59.18
2017-05-22T06:40:46.539Z,59.11
2017-05-22T06:41:18.844Z,58.76
2017-05-22T06:41:40.571Z,58.99
2017-05-22T06:42:15.975Z,58.24
2017-05-22T06:43:28.124Z,58.48
2017-05-22T06:45:04.365Z,58.38
2017-05-22T06:45:58.542Z,59.12
2017-05-22T06:47:19.603Z,59.43
2017-05-22T06:47:53.794Z,59.44
2017-05-22T06:48:20.360Z,59.40
2017-05-22T06:48:50.000Z,58.96
2017-05-22T06:50:07.220Z,59.57
2017-05-22T06:50:31.918Z,59.47
2017-05-22T06:51:06.234Z,59.13
2017-05-22T06:54:45.547Z,58.40
2017-05-22T06:58:50.328Z,58.42
2017-05-22T07:00:09.023Z,58.74
2017-05-22T07:01:43.854Z,58.75
2017-05-22T07:02:08.268Z,58.73
2017-05-22T07:02:32.454Z,58.67
2017-05-22T07:02:58.936Z,58.78
2017-05-22T07:03:22.706Z,58.41
2017-05-22T07:04:38.925Z,58.27
2017-05-22T07:05:03.534Z,58.46
2017-05-22T07:05:25.342Z,58.55
2017-05-22T07:06:21.075Z,58.28
2017-05-22T07:06:43.867Z,58.29
2017-05-22T07:07:11.040Z,58.25
2017-05-22T07:07:32.860Z,58.36
2017-05-22T07:10:33.617Z,57.83
2017-05-22T07:10:55.345Z,57.68
2017-05-22T07:11:19.975Z,58.16
2017-05-22T07:11:41.691Z,57.95
2017-05-22T07:12:48.247Z,58.57
2017-05-22T07:13:10.063Z,57.72
2017-05-22T07:13:32.108Z,57.81
2017-05-22T07:14:03.867Z,57.71
2017-05-22T07:16:08.714Z,58.40
2017-05-22T07:16:40.589Z,58.37
2017-05-22T07:17:07.070Z,58.11
2017-05-22T07:17:33.569Z,58.07
2017-05-22T07:18:02.251Z,58.44
2017-05-22T07:18:34.561Z,58.25
2017-05-22T07:19:00.266Z,58.36
2017-05-22T07:20:18.423Z,58.03
2017-05-22T07:21:14.925Z,58.68
2017-05-22T07:21:39.757Z,58.53
2017-05-22T07:22:09.169Z,58.59
2017-05-22T07:23:05.777Z,58.60
2017-05-22T07:23:27.506Z,58.89
2017-05-22T07:23:49.343Z,59.01
2017-05-22T07:24:11.003Z,58.97
2017-05-22T07:24:42.289Z,59.49
2017-05-22T07:25:04.046Z,59.25
2017-05-22T07:26:02.375Z,58.47
2017-05-22T07:26:24.159Z,58.44
2017-05-22T07:26:50.664Z,58.55
2017-05-22T07:27:12.370Z,58.40
2017-05-22T07:27:34.171Z,58.23
2017-05-22T07:28:00.651Z,58.46
2017-05-22T07:28:22.373Z,58.79
2017-05-22T07:28:44.165Z,58.73
2017-05-22T07:29:10.636Z,58.93
2017-05-22T07:29:32.383Z,59.13
2017-05-22T07:29:58.925Z,58.99
2017-05-22T07:30:20.617Z,58.89
2017-05-22T07:30:42.317Z,59.14
2017-05-22T07:31:13.585Z,59.26
2017-05-22T07:31:35.292Z,59.21
2017-05-22T07:32:41.159Z,59.07
2017-05-22T07:33:07.664Z,58.98
2017-05-22T07:33:38.951Z,58.82
2017-05-22T07:34:11.021Z,59.30
2017-05-22T07:34:37.657Z,59.45
2017-05-22T07:35:06.974Z,59.91
2017-05-22T07:35:28.923Z,59.52
2017-05-22T07:35:55.822Z,59.25
2017-05-22T07:36:49.797Z,59.77
2017-05-22T07:37:19.384Z,59.66
2017-05-22T07:38:27.417Z,59.43
2017-05-22T07:39:02.378Z,59.19
2017-05-22T07:39:28.801Z,59.45
2017-05-22T07:39:50.695Z,59.36
2017-05-22T07:40:39.087Z,59.30
2017-05-22T07:41:39.589Z,58.63
2017-05-22T07:42:07.096Z,58.77
2017-05-22T07:42:29.036Z,58.95
2017-05-22T07:43:00.120Z,59.30
2017-05-22T07:43:24.605Z,59.42
2017-05-22T07:43:46.706Z,59.71
2017-05-22T07:44:18.514Z,59.69
2017-05-22T07:45:41.703Z,59.20
2017-05-22T07:46:13.020Z,59.09
2017-05-22T07:46:39.423Z,59.13
2017-05-22T07:47:01.195Z,58.97
2017-05-22T07:47:33.454Z,58.79
2017-05-22T07:48:39.019Z,58.83
2017-05-22T07:49:09.592Z,58.47
2017-05-22T07:49:39.532Z,58.11
2017-05-22T07:50:10.010Z,58.54
2017-05-22T07:50:32.059Z,58.69
2017-05-22T07:50:54.147Z,59.29
2017-05-22T07:52:05.223Z,58.88
2017-05-22T07:53:32.884Z,58.59
2017-05-22T07:53:54.657Z,58.46
2017-05-22T07:54:19.627Z,58.15
2017-05-22T07:54:53.527Z,58.46
2017-05-22T07:55:24.943Z,58.56
2017-05-22T07:55:57.863Z,58.76
2017-05-22T07:56:57.247Z,58.64
2017-05-22T07:57:19.001Z,58.97